sensor_id;sensor_type;location;lat;lon;timestamp;temperature;humidity
10233;DHT22;5161;48.174;11.756;2024-02-26T00:01:00;8.10;64.40
10233;DHT22;5161;48.174;11.756;2024-02-26T00:03:26;8.10;64.30
10233;DHT22;5161;48.174;11.756;2024-02-26T00:05:52;8.10;64.10
10233;DHT22;5161;48.174;11.756;2024-02-26T00:08:17;8.10;64.10
10233;DHT22;5161;48.174;11.756;2024-02-26T00:10:43;8.00;64.00
10233;DHT22;5161;48.174;11.756;2024-02-26T00:13:08;8.00;63.90
10233;DHT22;5161;48.174;11.756;2024-02-26T00:15:34;8.00;63.80
10233;DHT22;5161;48.174;11.756;2024-02-26T00:18:01;8.00;63.80
10233;DHT22;5161;48.174;11.756;2024-02-26T00:20:26;8.00;63.40
10233;DHT22;5161;48.174;11.756;2024-02-26T00:22:52;8.00;63.20
10233;DHT22;5161;48.174;11.756;2024-02-26T00:25:17;8.00;63.20
10233;DHT22;5161;48.174;11.756;2024-02-26T00:27:43;8.00;63.00
10233;DHT22;5161;48.174;11.756;2024-02-26T00:30:09;8.00;63.00
10233;DHT22;5161;48.174;11.756;2024-02-26T00:32:35;8.00;63.00
10233;DHT22;5161;48.174;11.756;2024-02-26T00:35:01;8.00;63.00
10233;DHT22;5161;48.174;11.756;2024-02-26T00:37:26;7.90;63.00
10233;DHT22;5161;48.174;11.756;2024-02-26T00:39:52;7.80;62.80
10233;DHT22;5161;48.174;11.756;2024-02-26T00:42:19;7.80;63.00
10233;DHT22;5161;48.174;11.756;2024-02-26T00:44:45;7.80;62.80
10233;DHT22;5161;48.174;11.756;2024-02-26T00:47:10;7.80;62.90
10233;DHT22;5161;48.174;11.756;2024-02-26T00:49:37;7.80;62.90
10233;DHT22;5161;48.174;11.756;2024-02-26T00:52:02;7.70;62.80
10233;DHT22;5161;48.174;11.756;2024-02-26T00:54:28;7.70;62.70
10233;DHT22;5161;48.174;11.756;2024-02-26T00:56:53;7.70;62.80
10233;DHT22;5161;48.174;11.756;2024-02-26T00:59:19;7.60;62.70
10233;DHT22;5161;48.174;11.756;2024-02-26T01:01:44;7.60;62.70
10233;DHT22;5161;48.174;11.756;2024-02-26T01:04:10;7.60;62.80
10233;DHT22;5161;48.174;11.756;2024-02-26T01:06:37;7.50;62.80
10233;DHT22;5161;48.174;11.756;2024-02-26T01:09:02;7.50;62.80
10233;DHT22;5161;48.174;11.756;2024-02-26T01:11:28;7.50;62.70
10233;DHT22;5161;48.174;11.756;2024-02-26T01:13:54;7.40;63.00
10233;DHT22;5161;48.174;11.756;2024-02-26T01:16:24;7.40;62.80
10233;DHT22;5161;48.174;11.756;2024-02-26T01:18:49;7.40;63.00
10233;DHT22;5161;48.174;11.756;2024-02-26T01:21:15;7.40;62.80
10233;DHT22;5161;48.174;11.756;2024-02-26T01:23:40;7.30;62.80
10233;DHT22;5161;48.174;11.756;2024-02-26T01:26:06;7.30;62.90
10233;DHT22;5161;48.174;11.756;2024-02-26T01:28:32;7.30;62.90
10233;DHT22;5161;48.174;11.756;2024-02-26T01:30:57;7.30;62.90
10233;DHT22;5161;48.174;11.756;2024-02-26T01:33:26;7.20;62.90
10233;DHT22;5161;48.174;11.756;2024-02-26T01:35:51;7.10;63.00
10233;DHT22;5161;48.174;11.756;2024-02-26T01:38:18;7.10;62.80
10233;DHT22;5161;48.174;11.756;2024-02-26T01:40:44;7.10;62.90
10233;DHT22;5161;48.174;11.756;2024-02-26T01:43:09;7.10;62.90
10233;DHT22;5161;48.174;11.756;2024-02-26T01:45:35;7.10;62.80
10233;DHT22;5161;48.174;11.756;2024-02-26T01:48:00;7.00;62.70
10233;DHT22;5161;48.174;11.756;2024-02-26T01:50:26;7.00;62.80
10233;DHT22;5161;48.174;11.756;2024-02-26T01:52:53;7.00;62.90
10233;DHT22;5161;48.174;11.756;2024-02-26T01:55:19;6.90;62.90
10233;DHT22;5161;48.174;11.756;2024-02-26T01:57:46;6.90;63.10
10233;DHT22;5161;48.174;11.756;2024-02-26T02:00:14;6.80;63.20
10233;DHT22;5161;48.174;11.756;2024-02-26T02:02:41;6.80;64.20
10233;DHT22;5161;48.174;11.756;2024-02-26T02:05:09;6.80;63.20
10233;DHT22;5161;48.174;11.756;2024-02-26T02:07:37;6.80;63.60
10233;DHT22;5161;48.174;11.756;2024-02-26T02:10:02;6.80;63.10
10233;DHT22;5161;48.174;11.756;2024-02-26T02:12:28;6.80;63.30
10233;DHT22;5161;48.174;11.756;2024-02-26T02:14:54;6.70;63.30
10233;DHT22;5161;48.174;11.756;2024-02-26T02:17:20;6.80;63.40
10233;DHT22;5161;48.174;11.756;2024-02-26T02:19:46;6.80;63.50
10233;DHT22;5161;48.174;11.756;2024-02-26T02:22:11;6.80;63.40
10233;DHT22;5161;48.174;11.756;2024-02-26T02:24:37;6.80;63.40
10233;DHT22;5161;48.174;11.756;2024-02-26T02:27:03;6.80;63.50
10233;DHT22;5161;48.174;11.756;2024-02-26T02:29:29;6.70;63.70
10233;DHT22;5161;48.174;11.756;2024-02-26T02:31:55;6.70;63.30
10233;DHT22;5161;48.174;11.756;2024-02-26T02:34:21;6.70;63.50
10233;DHT22;5161;48.174;11.756;2024-02-26T02:36:51;6.70;64.50
10233;DHT22;5161;48.174;11.756;2024-02-26T02:39:17;6.70;64.60
10233;DHT22;5161;48.174;11.756;2024-02-26T02:41:43;6.70;63.60
10233;DHT22;5161;48.174;11.756;2024-02-26T02:44:09;6.70;63.80
10233;DHT22;5161;48.174;11.756;2024-02-26T02:46:34;6.70;63.60
10233;DHT22;5161;48.174;11.756;2024-02-26T02:49:00;6.70;63.50
10233;DHT22;5161;48.174;11.756;2024-02-26T02:51:26;6.70;63.60
10233;DHT22;5161;48.174;11.756;2024-02-26T02:53:52;6.70;63.40
10233;DHT22;5161;48.174;11.756;2024-02-26T02:56:17;6.60;63.40
10233;DHT22;5161;48.174;11.756;2024-02-26T02:58:43;6.60;63.20
10233;DHT22;5161;48.174;11.756;2024-02-26T03:01:08;6.60;63.30
10233;DHT22;5161;48.174;11.756;2024-02-26T03:03:34;6.60;63.30
10233;DHT22;5161;48.174;11.756;2024-02-26T03:06:01;6.60;63.30
10233;DHT22;5161;48.174;11.756;2024-02-26T03:08:26;6.60;63.20
10233;DHT22;5161;48.174;11.756;2024-02-26T03:10:52;6.60;63.00
10233;DHT22;5161;48.174;11.756;2024-02-26T03:13:17;6.60;63.00
10233;DHT22;5161;48.174;11.756;2024-02-26T03:15:43;6.60;63.10
10233;DHT22;5161;48.174;11.756;2024-02-26T03:18:08;6.60;63.00
10233;DHT22;5161;48.174;11.756;2024-02-26T03:20:34;6.50;63.10
10233;DHT22;5161;48.174;11.756;2024-02-26T03:23:00;6.60;63.40
10233;DHT22;5161;48.174;11.756;2024-02-26T03:25:25;6.50;63.20
10233;DHT22;5161;48.174;11.756;2024-02-26T03:27:51;6.50;63.10
10233;DHT22;5161;48.174;11.756;2024-02-26T03:30:16;6.50;63.10
10233;DHT22;5161;48.174;11.756;2024-02-26T03:32:42;6.40;63.80
10233;DHT22;5161;48.174;11.756;2024-02-26T03:35:08;6.40;64.30
10233;DHT22;5161;48.174;11.756;2024-02-26T03:37:33;6.40;64.20
10233;DHT22;5161;48.174;11.756;2024-02-26T03:39:59;6.40;64.00
10233;DHT22;5161;48.174;11.756;2024-02-26T03:42:26;6.40;63.70
10233;DHT22;5161;48.174;11.756;2024-02-26T03:44:52;6.40;63.60
10233;DHT22;5161;48.174;11.756;2024-02-26T03:47:17;6.40;63.20
10233;DHT22;5161;48.174;11.756;2024-02-26T03:49:43;6.40;63.40
10233;DHT22;5161;48.174;11.756;2024-02-26T03:52:09;6.50;63.80
10233;DHT22;5161;48.174;11.756;2024-02-26T03:54:34;6.50;63.50
10233;DHT22;5161;48.174;11.756;2024-02-26T03:57:00;6.50;63.10
10233;DHT22;5161;48.174;11.756;2024-02-26T03:59:26;6.50;62.80
10233;DHT22;5161;48.174;11.756;2024-02-26T04:01:51;6.50;62.80
10233;DHT22;5161;48.174;11.756;2024-02-26T04:04:17;6.50;62.60
10233;DHT22;5161;48.174;11.756;2024-02-26T04:06:46;6.50;62.80
10233;DHT22;5161;48.174;11.756;2024-02-26T04:09:14;6.50;64.10
10233;DHT22;5161;48.174;11.756;2024-02-26T04:11:40;6.50;64.00
10233;DHT22;5161;48.174;11.756;2024-02-26T04:14:05;6.50;62.60
10233;DHT22;5161;48.174;11.756;2024-02-26T04:16:34;6.50;62.40
10233;DHT22;5161;48.174;11.756;2024-02-26T04:19:00;6.50;62.20
10233;DHT22;5161;48.174;11.756;2024-02-26T04:21:25;6.50;62.60
10233;DHT22;5161;48.174;11.756;2024-02-26T04:23:51;6.60;62.10
10233;DHT22;5161;48.174;11.756;2024-02-26T04:26:20;6.60;62.10
10233;DHT22;5161;48.174;11.756;2024-02-26T04:28:46;6.50;61.90
10233;DHT22;5161;48.174;11.756;2024-02-26T04:31:12;6.50;61.90
10233;DHT22;5161;48.174;11.756;2024-02-26T04:33:37;6.50;61.90
10233;DHT22;5161;48.174;11.756;2024-02-26T04:36:03;6.50;61.80
10233;DHT22;5161;48.174;11.756;2024-02-26T04:38:30;6.50;61.70
10233;DHT22;5161;48.174;11.756;2024-02-26T04:40:56;6.60;62.20
10233;DHT22;5161;48.174;11.756;2024-02-26T04:43:21;6.60;61.70
10233;DHT22;5161;48.174;11.756;2024-02-26T04:45:47;6.60;61.80
10233;DHT22;5161;48.174;11.756;2024-02-26T04:48:13;6.60;61.70
10233;DHT22;5161;48.174;11.756;2024-02-26T04:50:38;6.50;61.60
10233;DHT22;5161;48.174;11.756;2024-02-26T04:53:04;6.50;61.60
10233;DHT22;5161;48.174;11.756;2024-02-26T04:55:30;6.50;61.60
10233;DHT22;5161;48.174;11.756;2024-02-26T04:57:55;6.50;61.60
10233;DHT22;5161;48.174;11.756;2024-02-26T05:00:21;6.50;61.70
10233;DHT22;5161;48.174;11.756;2024-02-26T05:02:47;6.50;61.70
10233;DHT22;5161;48.174;11.756;2024-02-26T05:05:12;6.50;61.70
10233;DHT22;5161;48.174;11.756;2024-02-26T05:07:41;6.50;61.70
10233;DHT22;5161;48.174;11.756;2024-02-26T05:10:07;6.50;62.40
10233;DHT22;5161;48.174;11.756;2024-02-26T05:12:33;6.40;61.50
10233;DHT22;5161;48.174;11.756;2024-02-26T05:15:01;6.40;61.60
10233;DHT22;5161;48.174;11.756;2024-02-26T05:17:27;6.40;61.60
10233;DHT22;5161;48.174;11.756;2024-02-26T05:19:52;6.30;61.70
10233;DHT22;5161;48.174;11.756;2024-02-26T05:22:18;6.30;61.80
10233;DHT22;5161;48.174;11.756;2024-02-26T05:24:43;6.30;61.90
10233;DHT22;5161;48.174;11.756;2024-02-26T05:27:09;6.30;61.70
10233;DHT22;5161;48.174;11.756;2024-02-26T05:29:35;6.20;62.00
10233;DHT22;5161;48.174;11.756;2024-02-26T05:32:00;6.20;62.20
10233;DHT22;5161;48.174;11.756;2024-02-26T05:34:26;6.20;62.10
10233;DHT22;5161;48.174;11.756;2024-02-26T05:36:51;6.20;62.20
10233;DHT22;5161;48.174;11.756;2024-02-26T05:39:17;6.30;61.90
10233;DHT22;5161;48.174;11.756;2024-02-26T05:41:42;6.30;62.00
10233;DHT22;5161;48.174;11.756;2024-02-26T05:44:09;6.30;61.70
10233;DHT22;5161;48.174;11.756;2024-02-26T05:46:35;6.30;61.90
10233;DHT22;5161;48.174;11.756;2024-02-26T05:49:01;6.30;61.80
10233;DHT22;5161;48.174;11.756;2024-02-26T05:51:27;6.30;61.60
10233;DHT22;5161;48.174;11.756;2024-02-26T05:53:53;6.30;61.80
10233;DHT22;5161;48.174;11.756;2024-02-26T05:56:22;6.30;61.60
10233;DHT22;5161;48.174;11.756;2024-02-26T05:58:47;6.30;61.80
10233;DHT22;5161;48.174;11.756;2024-02-26T06:01:15;6.30;61.70
10233;DHT22;5161;48.174;11.756;2024-02-26T06:03:42;6.30;63.00
10233;DHT22;5161;48.174;11.756;2024-02-26T06:06:07;6.20;61.70
10233;DHT22;5161;48.174;11.756;2024-02-26T06:08:33;6.20;61.70
10233;DHT22;5161;48.174;11.756;2024-02-26T06:10:59;6.20;61.90
10233;DHT22;5161;48.174;11.756;2024-02-26T06:13:24;6.20;62.10
10233;DHT22;5161;48.174;11.756;2024-02-26T06:15:50;6.20;61.90
10233;DHT22;5161;48.174;11.756;2024-02-26T06:18:15;6.20;61.90
10233;DHT22;5161;48.174;11.756;2024-02-26T06:20:41;6.20;61.80
10233;DHT22;5161;48.174;11.756;2024-02-26T06:23:07;6.20;61.70
10233;DHT22;5161;48.174;11.756;2024-02-26T06:25:32;6.20;61.70
10233;DHT22;5161;48.174;11.756;2024-02-26T06:27:58;6.20;61.70
10233;DHT22;5161;48.174;11.756;2024-02-26T06:30:25;6.30;61.80
10233;DHT22;5161;48.174;11.756;2024-02-26T06:32:50;6.30;62.10
10233;DHT22;5161;48.174;11.756;2024-02-26T06:35:16;6.30;61.90
10233;DHT22;5161;48.174;11.756;2024-02-26T06:37:41;6.30;62.20
10233;DHT22;5161;48.174;11.756;2024-02-26T06:40:07;6.30;62.10
10233;DHT22;5161;48.174;11.756;2024-02-26T06:42:33;6.40;62.30
10233;DHT22;5161;48.174;11.756;2024-02-26T06:44:58;6.40;62.30
10233;DHT22;5161;48.174;11.756;2024-02-26T06:47:24;6.40;62.50
10233;DHT22;5161;48.174;11.756;2024-02-26T06:49:51;6.40;62.50
10233;DHT22;5161;48.174;11.756;2024-02-26T06:52:16;6.40;62.40
10233;DHT22;5161;48.174;11.756;2024-02-26T06:54:42;6.50;62.40
10233;DHT22;5161;48.174;11.756;2024-02-26T06:57:08;6.60;62.30
10233;DHT22;5161;48.174;11.756;2024-02-26T06:59:33;6.60;62.10
10233;DHT22;5161;48.174;11.756;2024-02-26T07:01:59;6.60;61.70
10233;DHT22;5161;48.174;11.756;2024-02-26T07:04:24;6.60;61.80
10233;DHT22;5161;48.174;11.756;2024-02-26T07:06:50;6.70;62.00
10233;DHT22;5161;48.174;11.756;2024-02-26T07:09:15;6.70;61.90
10233;DHT22;5161;48.174;11.756;2024-02-26T07:11:41;6.70;61.90
10233;DHT22;5161;48.174;11.756;2024-02-26T07:14:10;6.80;62.00
10233;DHT22;5161;48.174;11.756;2024-02-26T07:16:36;6.80;62.00
10233;DHT22;5161;48.174;11.756;2024-02-26T07:19:02;6.80;61.90
10233;DHT22;5161;48.174;11.756;2024-02-26T07:21:28;6.80;61.90
10233;DHT22;5161;48.174;11.756;2024-02-26T07:23:54;6.80;61.80
10233;DHT22;5161;48.174;11.756;2024-02-26T07:26:19;6.90;61.90
10233;DHT22;5161;48.174;11.756;2024-02-26T07:28:45;6.90;61.90
10233;DHT22;5161;48.174;11.756;2024-02-26T07:31:11;6.90;62.00
10233;DHT22;5161;48.174;11.756;2024-02-26T07:33:36;7.00;61.90
10233;DHT22;5161;48.174;11.756;2024-02-26T07:36:02;7.00;61.70
10233;DHT22;5161;48.174;11.756;2024-02-26T07:38:27;7.10;62.10
10233;DHT22;5161;48.174;11.756;2024-02-26T07:40:53;7.10;62.60
10233;DHT22;5161;48.174;11.756;2024-02-26T07:43:18;7.20;62.90
10233;DHT22;5161;48.174;11.756;2024-02-26T07:45:44;7.30;63.60
10233;DHT22;5161;48.174;11.756;2024-02-26T07:48:10;7.50;63.90
10233;DHT22;5161;48.174;11.756;2024-02-26T07:50:35;7.50;63.30
10233;DHT22;5161;48.174;11.756;2024-02-26T07:53:02;7.50;63.00
10233;DHT22;5161;48.174;11.756;2024-02-26T07:55:27;7.50;63.40
10233;DHT22;5161;48.174;11.756;2024-02-26T07:57:53;7.50;62.80
10233;DHT22;5161;48.174;11.756;2024-02-26T08:00:19;7.50;62.70
10233;DHT22;5161;48.174;11.756;2024-02-26T08:02:44;7.50;62.90
10233;DHT22;5161;48.174;11.756;2024-02-26T08:05:10;7.40;63.20
10233;DHT22;5161;48.174;11.756;2024-02-26T08:07:36;7.50;63.30
10233;DHT22;5161;48.174;11.756;2024-02-26T08:10:01;7.50;63.30
10233;DHT22;5161;48.174;11.756;2024-02-26T08:12:27;7.60;63.60
10233;DHT22;5161;48.174;11.756;2024-02-26T08:14:53;7.50;63.30
10233;DHT22;5161;48.174;11.756;2024-02-26T08:17:18;7.60;63.30
10233;DHT22;5161;48.174;11.756;2024-02-26T08:19:44;7.60;63.70
10233;DHT22;5161;48.174;11.756;2024-02-26T08:22:09;7.60;62.70
10233;DHT22;5161;48.174;11.756;2024-02-26T08:24:44;7.60;62.70
10233;DHT22;5161;48.174;11.756;2024-02-26T08:27:10;7.70;63.10
10233;DHT22;5161;48.174;11.756;2024-02-26T08:29:35;7.70;63.10
10233;DHT22;5161;48.174;11.756;2024-02-26T08:32:01;7.70;63.20
10233;DHT22;5161;48.174;11.756;2024-02-26T08:34:27;7.70;63.00
10233;DHT22;5161;48.174;11.756;2024-02-26T08:36:52;7.60;63.60
10233;DHT22;5161;48.174;11.756;2024-02-26T08:39:18;7.70;63.80
10233;DHT22;5161;48.174;11.756;2024-02-26T08:41:44;7.80;63.70
10233;DHT22;5161;48.174;11.756;2024-02-26T08:44:10;7.80;63.70
10233;DHT22;5161;48.174;11.756;2024-02-26T08:46:36;7.80;63.70
10233;DHT22;5161;48.174;11.756;2024-02-26T08:49:01;7.80;63.80
10233;DHT22;5161;48.174;11.756;2024-02-26T08:51:27;7.90;64.20
10233;DHT22;5161;48.174;11.756;2024-02-26T08:53:52;8.00;64.20
10233;DHT22;5161;48.174;11.756;2024-02-26T08:56:19;8.00;63.90
10233;DHT22;5161;48.174;11.756;2024-02-26T08:58:47;8.00;63.80
10233;DHT22;5161;48.174;11.756;2024-02-26T09:01:14;8.10;64.10
10233;DHT22;5161;48.174;11.756;2024-02-26T09:03:40;8.10;64.00
10233;DHT22;5161;48.174;11.756;2024-02-26T09:06:06;8.20;63.90
10233;DHT22;5161;48.174;11.756;2024-02-26T09:08:32;8.20;63.90
10233;DHT22;5161;48.174;11.756;2024-02-26T09:10:58;8.30;63.90
10233;DHT22;5161;48.174;11.756;2024-02-26T09:13:23;8.30;63.80
10233;DHT22;5161;48.174;11.756;2024-02-26T09:15:49;8.40;63.80
10233;DHT22;5161;48.174;11.756;2024-02-26T09:18:15;8.40;63.70
10233;DHT22;5161;48.174;11.756;2024-02-26T09:20:41;8.40;63.70
10233;DHT22;5161;48.174;11.756;2024-02-26T09:23:07;8.40;63.60
10233;DHT22;5161;48.174;11.756;2024-02-26T09:25:32;8.40;63.50
10233;DHT22;5161;48.174;11.756;2024-02-26T09:27:59;8.50;63.90
10233;DHT22;5161;48.174;11.756;2024-02-26T09:30:24;8.50;63.80
10233;DHT22;5161;48.174;11.756;2024-02-26T09:32:50;8.60;63.80
10233;DHT22;5161;48.174;11.756;2024-02-26T09:35:16;8.60;64.50
10233;DHT22;5161;48.174;11.756;2024-02-26T09:37:42;8.70;64.10
10233;DHT22;5161;48.174;11.756;2024-02-26T09:40:09;8.70;64.40
10233;DHT22;5161;48.174;11.756;2024-02-26T09:42:37;8.80;64.70
10233;DHT22;5161;48.174;11.756;2024-02-26T09:45:11;8.80;64.80
10233;DHT22;5161;48.174;11.756;2024-02-26T09:47:38;8.90;65.10
10233;DHT22;5161;48.174;11.756;2024-02-26T09:50:05;8.90;64.80
10233;DHT22;5161;48.174;11.756;2024-02-26T09:52:33;8.80;64.10
10233;DHT22;5161;48.174;11.756;2024-02-26T09:55:00;8.80;63.90
10233;DHT22;5161;48.174;11.756;2024-02-26T09:57:26;8.60;63.30
10233;DHT22;5161;48.174;11.756;2024-02-26T09:59:53;8.50;64.30
10233;DHT22;5161;48.174;11.756;2024-02-26T10:02:23;8.50;64.80
10233;DHT22;5161;48.174;11.756;2024-02-26T10:04:50;8.70;65.10
10233;DHT22;5161;48.174;11.756;2024-02-26T10:07:17;8.80;65.00
10233;DHT22;5161;48.174;11.756;2024-02-26T10:09:43;8.90;65.30
10233;DHT22;5161;48.174;11.756;2024-02-26T10:12:10;9.00;64.60
10233;DHT22;5161;48.174;11.756;2024-02-26T10:14:37;9.10;64.80
10233;DHT22;5161;48.174;11.756;2024-02-26T10:17:03;9.10;64.90
10233;DHT22;5161;48.174;11.756;2024-02-26T10:19:32;9.10;64.50
10233;DHT22;5161;48.174;11.756;2024-02-26T10:21:58;9.10;64.70
10233;DHT22;5161;48.174;11.756;2024-02-26T10:24:25;9.10;65.00
10233;DHT22;5161;48.174;11.756;2024-02-26T10:26:52;9.10;64.50
10233;DHT22;5161;48.174;11.756;2024-02-26T10:29:21;9.10;64.90
10233;DHT22;5161;48.174;11.756;2024-02-26T10:31:47;9.10;65.00
10233;DHT22;5161;48.174;11.756;2024-02-26T10:34:14;9.20;65.10
10233;DHT22;5161;48.174;11.756;2024-02-26T10:36:40;9.20;65.10
10233;DHT22;5161;48.174;11.756;2024-02-26T10:39:09;9.20;65.40
10233;DHT22;5161;48.174;11.756;2024-02-26T10:41:37;9.30;65.40
10233;DHT22;5161;48.174;11.756;2024-02-26T10:44:03;9.30;65.20
10233;DHT22;5161;48.174;11.756;2024-02-26T10:46:29;9.30;65.30
10233;DHT22;5161;48.174;11.756;2024-02-26T10:48:55;9.30;65.60
10233;DHT22;5161;48.174;11.756;2024-02-26T10:51:29;9.30;65.90
10233;DHT22;5161;48.174;11.756;2024-02-26T10:53:59;9.40;66.40
10233;DHT22;5161;48.174;11.756;2024-02-26T10:56:28;9.50;66.40
10233;DHT22;5161;48.174;11.756;2024-02-26T10:58:58;9.50;66.40
10233;DHT22;5161;48.174;11.756;2024-02-26T11:01:25;9.60;66.60
10233;DHT22;5161;48.174;11.756;2024-02-26T11:03:52;9.60;66.50
10233;DHT22;5161;48.174;11.756;2024-02-26T11:06:22;9.70;66.60
10233;DHT22;5161;48.174;11.756;2024-02-26T11:08:51;9.80;67.10
10233;DHT22;5161;48.174;11.756;2024-02-26T11:11:20;9.80;66.60
10233;DHT22;5161;48.174;11.756;2024-02-26T11:13:48;9.90;66.10
10233;DHT22;5161;48.174;11.756;2024-02-26T11:16:21;9.90;65.80
10233;DHT22;5161;48.174;11.756;2024-02-26T11:18:48;10.00;64.60
10233;DHT22;5161;48.174;11.756;2024-02-26T11:21:17;10.00;65.10
10233;DHT22;5161;48.174;11.756;2024-02-26T11:23:53;10.10;64.70
10233;DHT22;5161;48.174;11.756;2024-02-26T11:26:20;10.20;63.60
10233;DHT22;5161;48.174;11.756;2024-02-26T11:28:47;10.30;64.20
10233;DHT22;5161;48.174;11.756;2024-02-26T11:31:13;10.40;64.60
10233;DHT22;5161;48.174;11.756;2024-02-26T11:33:39;10.40;63.50
10233;DHT22;5161;48.174;11.756;2024-02-26T11:36:14;10.50;64.20
10233;DHT22;5161;48.174;11.756;2024-02-26T11:38:41;10.50;62.40
10233;DHT22;5161;48.174;11.756;2024-02-26T11:41:07;10.50;62.80
10233;DHT22;5161;48.174;11.756;2024-02-26T11:43:52;10.50;63.40
10233;DHT22;5161;48.174;11.756;2024-02-26T11:46:26;10.60;63.30
10233;DHT22;5161;48.174;11.756;2024-02-26T11:48:55;10.70;63.30
10233;DHT22;5161;48.174;11.756;2024-02-26T11:51:25;10.70;62.20
10233;DHT22;5161;48.174;11.756;2024-02-26T11:53:52;10.90;64.00
10233;DHT22;5161;48.174;11.756;2024-02-26T11:59:00;11.30;62.30
10233;DHT22;5161;48.174;11.756;2024-02-26T12:04:05;11.90;63.30
10233;DHT22;5161;48.174;11.756;2024-02-26T12:06:39;12.10;63.20
10233;DHT22;5161;48.174;11.756;2024-02-26T12:09:06;12.30;64.10
10233;DHT22;5161;48.174;11.756;2024-02-26T12:11:32;12.40;60.50
10233;DHT22;5161;48.174;11.756;2024-02-26T12:13:58;12.30;60.40
10233;DHT22;5161;48.174;11.756;2024-02-26T12:16:40;12.20;61.80
10233;DHT22;5161;48.174;11.756;2024-02-26T12:19:09;12.30;62.60
10233;DHT22;5161;48.174;11.756;2024-02-26T12:21:35;12.20;60.90
10233;DHT22;5161;48.174;11.756;2024-02-26T12:24:12;12.20;61.30
10233;DHT22;5161;48.174;11.756;2024-02-26T12:26:39;12.10;61.90
10233;DHT22;5161;48.174;11.756;2024-02-26T12:29:05;12.20;62.50
10233;DHT22;5161;48.174;11.756;2024-02-26T12:31:34;12.60;65.00
10233;DHT22;5161;48.174;11.756;2024-02-26T12:34:02;12.90;66.50
10233;DHT22;5161;48.174;11.756;2024-02-26T12:36:28;13.10;65.80
10233;DHT22;5161;48.174;11.756;2024-02-26T12:38:54;13.20;65.80
10233;DHT22;5161;48.174;11.756;2024-02-26T12:41:20;13.10;65.50
10233;DHT22;5161;48.174;11.756;2024-02-26T12:43:46;13.10;66.70
10233;DHT22;5161;48.174;11.756;2024-02-26T12:46:12;13.40;67.10
10233;DHT22;5161;48.174;11.756;2024-02-26T12:48:42;13.60;67.30
10233;DHT22;5161;48.174;11.756;2024-02-26T12:51:07;13.80;66.80
10233;DHT22;5161;48.174;11.756;2024-02-26T12:53:35;14.00;66.80
10233;DHT22;5161;48.174;11.756;2024-02-26T12:56:02;13.90;66.20
10233;DHT22;5161;48.174;11.756;2024-02-26T12:58:29;13.70;65.70
10233;DHT22;5161;48.174;11.756;2024-02-26T13:00:55;13.50;65.20
10233;DHT22;5161;48.174;11.756;2024-02-26T13:03:22;13.40;66.00
10233;DHT22;5161;48.174;11.756;2024-02-26T13:05:48;13.30;65.90
10233;DHT22;5161;48.174;11.756;2024-02-26T13:08:18;13.40;65.80
10233;DHT22;5161;48.174;11.756;2024-02-26T13:10:46;13.30;65.30
10233;DHT22;5161;48.174;11.756;2024-02-26T13:13:14;13.30;65.30
10233;DHT22;5161;48.174;11.756;2024-02-26T13:15:41;13.30;64.80
10233;DHT22;5161;48.174;11.756;2024-02-26T13:18:11;13.50;65.70
10233;DHT22;5161;48.174;11.756;2024-02-26T13:20:37;13.60;64.60
10233;DHT22;5161;48.174;11.756;2024-02-26T13:23:06;13.80;64.20
10233;DHT22;5161;48.174;11.756;2024-02-26T13:25:34;13.90;64.30
10233;DHT22;5161;48.174;11.756;2024-02-26T13:28:15;14.10;65.20
10233;DHT22;5161;48.174;11.756;2024-02-26T13:30:56;14.30;65.30
10233;DHT22;5161;48.174;11.756;2024-02-26T13:33:23;14.40;65.20
10233;DHT22;5161;48.174;11.756;2024-02-26T13:35:49;14.40;65.40
10233;DHT22;5161;48.174;11.756;2024-02-26T13:38:15;14.60;65.40
10233;DHT22;5161;48.174;11.756;2024-02-26T13:40:41;14.60;65.30
10233;DHT22;5161;48.174;11.756;2024-02-26T13:43:06;14.70;65.10
10233;DHT22;5161;48.174;11.756;2024-02-26T13:45:34;14.70;64.50
10233;DHT22;5161;48.174;11.756;2024-02-26T13:48:05;14.70;64.30
10233;DHT22;5161;48.174;11.756;2024-02-26T13:50:31;14.70;64.80
10233;DHT22;5161;48.174;11.756;2024-02-26T13:52:57;14.70;64.80
10233;DHT22;5161;48.174;11.756;2024-02-26T13:55:26;14.70;63.90
10233;DHT22;5161;48.174;11.756;2024-02-26T13:57:56;14.70;63.30
10233;DHT22;5161;48.174;11.756;2024-02-26T14:00:22;14.70;64.10
10233;DHT22;5161;48.174;11.756;2024-02-26T14:02:48;14.70;64.50
10233;DHT22;5161;48.174;11.756;2024-02-26T14:05:13;14.70;62.10
10233;DHT22;5161;48.174;11.756;2024-02-26T14:07:39;14.60;63.00
10233;DHT22;5161;48.174;11.756;2024-02-26T14:10:05;14.60;62.70
10233;DHT22;5161;48.174;11.756;2024-02-26T14:12:31;14.50;61.90
10233;DHT22;5161;48.174;11.756;2024-02-26T14:14:56;14.50;62.00
10233;DHT22;5161;48.174;11.756;2024-02-26T14:17:24;14.30;61.60
10233;DHT22;5161;48.174;11.756;2024-02-26T14:19:49;14.10;61.30
10233;DHT22;5161;48.174;11.756;2024-02-26T14:22:15;14.00;61.60
10233;DHT22;5161;48.174;11.756;2024-02-26T14:24:41;13.90;61.40
10233;DHT22;5161;48.174;11.756;2024-02-26T14:27:10;13.80;61.20
10233;DHT22;5161;48.174;11.756;2024-02-26T14:29:36;13.80;61.50
10233;DHT22;5161;48.174;11.756;2024-02-26T14:32:03;13.60;60.70
10233;DHT22;5161;48.174;11.756;2024-02-26T14:34:29;13.50;60.50
10233;DHT22;5161;48.174;11.756;2024-02-26T14:36:54;13.50;60.30
10233;DHT22;5161;48.174;11.756;2024-02-26T14:39:21;13.40;60.70
10233;DHT22;5161;48.174;11.756;2024-02-26T14:41:46;13.30;60.70
10233;DHT22;5161;48.174;11.756;2024-02-26T14:44:12;13.30;60.70
10233;DHT22;5161;48.174;11.756;2024-02-26T14:46:38;13.20;60.20
10233;DHT22;5161;48.174;11.756;2024-02-26T14:49:04;13.20;59.80
10233;DHT22;5161;48.174;11.756;2024-02-26T14:51:30;13.20;59.80
10233;DHT22;5161;48.174;11.756;2024-02-26T14:53:56;13.10;59.80
10233;DHT22;5161;48.174;11.756;2024-02-26T14:56:22;13.00;59.10
10233;DHT22;5161;48.174;11.756;2024-02-26T14:58:47;13.00;59.30
10233;DHT22;5161;48.174;11.756;2024-02-26T15:01:15;12.90;59.30
10233;DHT22;5161;48.174;11.756;2024-02-26T15:03:41;12.90;59.10
10233;DHT22;5161;48.174;11.756;2024-02-26T15:06:06;12.80;58.80
10233;DHT22;5161;48.174;11.756;2024-02-26T15:08:32;12.80;58.20
10233;DHT22;5161;48.174;11.756;2024-02-26T15:10:57;12.80;58.60
10233;DHT22;5161;48.174;11.756;2024-02-26T15:13:23;12.80;58.70
10233;DHT22;5161;48.174;11.756;2024-02-26T15:15:48;12.70;58.60
10233;DHT22;5161;48.174;11.756;2024-02-26T15:18:14;12.70;58.60
10233;DHT22;5161;48.174;11.756;2024-02-26T15:20:42;12.60;58.40
10233;DHT22;5161;48.174;11.756;2024-02-26T15:23:11;12.60;58.40
10233;DHT22;5161;48.174;11.756;2024-02-26T15:25:37;12.60;58.60
10233;DHT22;5161;48.174;11.756;2024-02-26T15:28:03;12.50;58.40
10233;DHT22;5161;48.174;11.756;2024-02-26T15:30:29;12.50;58.40
10233;DHT22;5161;48.174;11.756;2024-02-26T15:32:55;12.50;58.60
10233;DHT22;5161;48.174;11.756;2024-02-26T15:35:21;12.50;58.70
10233;DHT22;5161;48.174;11.756;2024-02-26T15:37:47;12.50;58.70
10233;DHT22;5161;48.174;11.756;2024-02-26T15:40:13;12.50;58.70
10233;DHT22;5161;48.174;11.756;2024-02-26T15:42:38;12.50;58.80